ELY5225 LLBG-LGSR
Flight info
| Callsign | ELY5225 |
|---|---|
| Flight time | 1h 38m |
| Altitude | 38000 |
| Route | SUVAS L53 ANIDE UL53 TIPAS |
| Aircraft | B738/M-SDE2E3FGHIJ1LORVWXY/LB1 |
Departure
| Time | 2026-05-09 12:18 |
|---|---|
| Airport | Ben Gurion International Airport (LLBG) |
Arrival
| Time | 2026-05-09 13:57 |
|---|---|
| Airport | Santorini International Airport (LGSR) |
| Time | Latitude | Longitude | Altitude | Speed | Heading |
|---|---|---|---|---|---|
| 2026-05-09 11:54 | 32.00191 | 34.87832 | 118 ft | 0 kts | 120° |
| 2026-05-09 12:09 | 32.00191 | 34.87831 | 118 ft | 2 kts | 120° |
| 2026-05-09 12:09 | 32.00204 | 34.87806 | 117 ft | 4 kts | 123° |
| 2026-05-09 12:09 | 32.00215 | 34.87785 | 114 ft | 4 kts | 125° |
| 2026-05-09 12:10 | 32.00270 | 34.87788 | 116 ft | 4 kts | 211° |
| 2026-05-09 12:10 | 32.00292 | 34.87805 | 115 ft | 3 kts | 211° |
| 2026-05-09 12:10 | 32.00296 | 34.87807 | 118 ft | 0 kts | 210° |
| 2026-05-09 12:12 | 32.00295 | 34.87807 | 118 ft | 1 kts | 210° |
| 2026-05-09 12:12 | 32.00275 | 34.87793 | 117 ft | 6 kts | 211° |
| 2026-05-09 12:12 | 32.00218 | 34.87752 | 113 ft | 13 kts | 211° |
| 2026-05-09 12:13 | 32.00187 | 34.87722 | 116 ft | 14 kts | 237° |
| 2026-05-09 12:13 | 32.00241 | 34.87668 | 116 ft | 14 kts | 32° |
| 2026-05-09 12:13 | 32.00321 | 34.87727 | 117 ft | 13 kts | 31° |
| 2026-05-09 12:13 | 32.00398 | 34.87780 | 119 ft | 13 kts | 30° |
| 2026-05-09 12:14 | 32.00476 | 34.87836 | 117 ft | 14 kts | 32° |
| 2026-05-09 12:14 | 32.00567 | 34.87903 | 118 ft | 17 kts | 33° |
| 2026-05-09 12:14 | 32.00682 | 34.87984 | 117 ft | 21 kts | 31° |
| 2026-05-09 12:14 | 32.00817 | 34.88080 | 116 ft | 24 kts | 30° |
| 2026-05-09 12:15 | 32.00963 | 34.88186 | 117 ft | 24 kts | 31° |
| 2026-05-09 12:15 | 32.01101 | 34.88284 | 120 ft | 23 kts | 31° |
| 2026-05-09 12:15 | 32.01234 | 34.88382 | 123 ft | 22 kts | 34° |
| 2026-05-09 12:15 | 32.01345 | 34.88496 | 123 ft | 22 kts | 47° |
| 2026-05-09 12:16 | 32.01433 | 34.88637 | 125 ft | 21 kts | 60° |
| 2026-05-09 12:16 | 32.01489 | 34.88800 | 125 ft | 23 kts | 75° |
| 2026-05-09 12:16 | 32.01521 | 34.89000 | 124 ft | 26 kts | 80° |
| 2026-05-09 12:16 | 32.01605 | 34.89154 | 124 ft | 24 kts | 354° |
| 2026-05-09 12:17 | 32.01737 | 34.89122 | 127 ft | 8 kts | 324° |
| 2026-05-09 12:17 | 32.01744 | 34.89086 | 128 ft | 0 kts | 260° |
| 2026-05-09 12:18 | 32.01712 | 34.88871 | 128 ft | 63 kts | 260° |
| 2026-05-09 12:18 | 32.01591 | 34.88081 | 120 ft | 131 kts | 260° |
| 2026-05-09 12:18 | 32.01390 | 34.86833 | 334 ft | 165 kts | 264° |
| 2026-05-09 12:18 | 32.01163 | 34.85509 | 1105 ft | 168 kts | 264° |
| 2026-05-09 12:19 | 32.00946 | 34.84191 | 1885 ft | 166 kts | 262° |
| 2026-05-09 12:19 | 32.00669 | 34.82811 | 2306 ft | 189 kts | 262° |
| 2026-05-09 12:19 | 32.00331 | 34.81173 | 2564 ft | 219 kts | 260° |
| 2026-05-09 12:19 | 31.99942 | 34.79331 | 2803 ft | 244 kts | 259° |
| 2026-05-09 12:20 | 31.99512 | 34.77293 | 3092 ft | 267 kts | 258° |
| 2026-05-09 12:20 | 31.99206 | 34.75134 | 3848 ft | 267 kts | 276° |
| 2026-05-09 12:20 | 31.99686 | 34.73035 | 4682 ft | 268 kts | 291° |
| 2026-05-09 12:20 | 32.00347 | 34.70958 | 5436 ft | 272 kts | 290° |
| 2026-05-09 12:21 | 32.01013 | 34.68858 | 6264 ft | 273 kts | 289° |
| 2026-05-09 12:21 | 32.01669 | 34.66771 | 6938 ft | 278 kts | 288° |
| 2026-05-09 12:21 | 32.02341 | 34.64621 | 7603 ft | 281 kts | 288° |
| 2026-05-09 12:21 | 32.02806 | 34.62394 | 7928 ft | 278 kts | 271° |
| 2026-05-09 12:22 | 32.02891 | 34.60138 | 7997 ft | 278 kts | 270° |
| 2026-05-09 12:22 | 32.02980 | 34.57844 | 8016 ft | 282 kts | 270° |
| 2026-05-09 12:22 | 32.03088 | 34.55534 | 8015 ft | 283 kts | 271° |
| 2026-05-09 12:22 | 32.03206 | 34.53218 | 8019 ft | 283 kts | 272° |
| 2026-05-09 12:23 | 32.03327 | 34.50894 | 8098 ft | 286 kts | 271° |
| 2026-05-09 12:23 | 32.03451 | 34.48555 | 8812 ft | 285 kts | 271° |
| 2026-05-09 12:23 | 32.03573 | 34.46210 | 9584 ft | 287 kts | 272° |
| 2026-05-09 12:23 | 32.03698 | 34.43852 | 10328 ft | 289 kts | 272° |
| 2026-05-09 12:24 | 32.03836 | 34.41390 | 10540 ft | 312 kts | 272° |
| 2026-05-09 12:24 | 32.03985 | 34.38796 | 10692 ft | 333 kts | 272° |
| 2026-05-09 12:24 | 32.04147 | 34.36008 | 11012 ft | 346 kts | 272° |
| 2026-05-09 12:24 | 32.04313 | 34.33134 | 11486 ft | 353 kts | 273° |
| 2026-05-09 12:25 | 32.04480 | 34.30232 | 12143 ft | 356 kts | 273° |
| 2026-05-09 12:25 | 32.04644 | 34.27331 | 12876 ft | 356 kts | 274° |
| 2026-05-09 12:25 | 32.04827 | 34.24392 | 13470 ft | 360 kts | 277° |
| 2026-05-09 12:25 | 32.05542 | 34.21563 | 14068 ft | 364 kts | 296° |
| 2026-05-09 12:26 | 32.06811 | 34.18976 | 14742 ft | 364 kts | 300° |
| 2026-05-09 12:26 | 32.08140 | 34.16425 | 15379 ft | 367 kts | 301° |
| 2026-05-09 12:26 | 32.09471 | 34.13879 | 15972 ft | 370 kts | 301° |
| 2026-05-09 12:26 | 32.10821 | 34.11270 | 16593 ft | 372 kts | 300° |
| 2026-05-09 12:27 | 32.12165 | 34.08647 | 17194 ft | 375 kts | 300° |
| 2026-05-09 12:27 | 32.13514 | 34.05994 | 17794 ft | 378 kts | 300° |
| 2026-05-09 12:27 | 32.14866 | 34.03325 | 18369 ft | 381 kts | 300° |
| 2026-05-09 12:27 | 32.16230 | 34.00631 | 18862 ft | 383 kts | 300° |
| 2026-05-09 12:28 | 32.17563 | 33.97897 | 19395 ft | 385 kts | 297° |
| 2026-05-09 12:28 | 32.18783 | 33.95071 | 19899 ft | 387 kts | 295° |
| 2026-05-09 12:28 | 32.19943 | 33.92233 | 20393 ft | 389 kts | 295° |
| 2026-05-09 12:28 | 32.21110 | 33.89334 | 20902 ft | 391 kts | 294° |
| 2026-05-09 12:29 | 32.22284 | 33.86419 | 21409 ft | 394 kts | 294° |
| 2026-05-09 12:29 | 32.23471 | 33.83491 | 21890 ft | 396 kts | 295° |
| 2026-05-09 12:29 | 32.24672 | 33.80544 | 22375 ft | 398 kts | 295° |
| 2026-05-09 12:29 | 32.25886 | 33.77581 | 22854 ft | 401 kts | 295° |
| 2026-05-09 12:30 | 32.27093 | 33.74641 | 23303 ft | 403 kts | 295° |
| 2026-05-09 12:30 | 32.28325 | 33.71643 | 23727 ft | 405 kts | 295° |
| 2026-05-09 12:30 | 32.30805 | 33.65610 | 24535 ft | 408 kts | 294° |
| 2026-05-09 12:31 | 32.32046 | 33.62588 | 24947 ft | 409 kts | 294° |
| 2026-05-09 12:31 | 32.34522 | 33.56549 | 25707 ft | 412 kts | 294° |
| 2026-05-09 12:31 | 32.35777 | 33.53485 | 26099 ft | 413 kts | 294° |
| 2026-05-09 12:32 | 32.37031 | 33.50421 | 26475 ft | 414 kts | 294° |
| 2026-05-09 12:32 | 32.38288 | 33.47345 | 26839 ft | 416 kts | 294° |
| 2026-05-09 12:32 | 32.39551 | 33.44253 | 27197 ft | 417 kts | 294° |
| 2026-05-09 12:32 | 32.40817 | 33.41151 | 27529 ft | 419 kts | 294° |
| 2026-05-09 12:33 | 32.42083 | 33.38045 | 27866 ft | 420 kts | 294° |
| 2026-05-09 12:33 | 32.43356 | 33.34919 | 28204 ft | 421 kts | 294° |
| 2026-05-09 12:33 | 32.44616 | 33.31825 | 28514 ft | 423 kts | 294° |
| 2026-05-09 12:33 | 32.45898 | 33.28672 | 28832 ft | 425 kts | 294° |
| 2026-05-09 12:34 | 32.47183 | 33.25507 | 29141 ft | 426 kts | 294° |
| 2026-05-09 12:34 | 32.48470 | 33.22336 | 29472 ft | 427 kts | 294° |
| 2026-05-09 12:34 | 32.49740 | 33.19207 | 29929 ft | 424 kts | 294° |
| 2026-05-09 12:34 | 32.51012 | 33.16070 | 30414 ft | 421 kts | 294° |
| 2026-05-09 12:35 | 32.52276 | 33.12948 | 30822 ft | 419 kts | 294° |
| 2026-05-09 12:35 | 32.53534 | 33.09837 | 31141 ft | 418 kts | 294° |
| 2026-05-09 12:35 | 32.54794 | 33.06718 | 31435 ft | 419 kts | 294° |
| 2026-05-09 12:35 | 32.56051 | 33.03604 | 31779 ft | 418 kts | 294° |
| 2026-05-09 12:36 | 32.57306 | 33.00493 | 32150 ft | 416 kts | 294° |
| 2026-05-09 12:36 | 32.58537 | 32.97438 | 32484 ft | 415 kts | 294° |
| 2026-05-09 12:36 | 32.59782 | 32.94346 | 32788 ft | 415 kts | 294° |
| 2026-05-09 12:36 | 32.61027 | 32.91251 | 33124 ft | 414 kts | 294° |
| 2026-05-09 12:37 | 32.62266 | 32.88168 | 33451 ft | 413 kts | 294° |
| 2026-05-09 12:37 | 32.63503 | 32.85087 | 33701 ft | 414 kts | 294° |
| 2026-05-09 12:37 | 32.64742 | 32.81998 | 33979 ft | 414 kts | 294° |
| 2026-05-09 12:37 | 32.65979 | 32.78912 | 34271 ft | 413 kts | 294° |
| 2026-05-09 12:38 | 32.67210 | 32.75839 | 34561 ft | 412 kts | 294° |
| 2026-05-09 12:38 | 32.68424 | 32.72807 | 34795 ft | 412 kts | 294° |
| 2026-05-09 12:38 | 32.69653 | 32.69732 | 35027 ft | 412 kts | 294° |
| 2026-05-09 12:38 | 32.70880 | 32.66660 | 35287 ft | 411 kts | 294° |
| 2026-05-09 12:39 | 32.72107 | 32.63584 | 35548 ft | 410 kts | 294° |
| 2026-05-09 12:39 | 32.73330 | 32.60518 | 35760 ft | 411 kts | 294° |
| 2026-05-09 12:39 | 32.74140 | 32.58484 | 35830 ft | 412 kts | 294° |
| 2026-05-09 12:39 | 32.75773 | 32.54382 | 36093 ft | 413 kts | 294° |
| 2026-05-09 12:40 | 32.77000 | 32.51295 | 36379 ft | 411 kts | 294° |
| 2026-05-09 12:40 | 32.77808 | 32.49262 | 36567 ft | 410 kts | 294° |
| 2026-05-09 12:40 | 32.79025 | 32.46199 | 36788 ft | 410 kts | 294° |
| 2026-05-09 12:40 | 32.80244 | 32.43125 | 36978 ft | 410 kts | 294° |
| 2026-05-09 12:41 | 32.81477 | 32.40068 | 37197 ft | 410 kts | 297° |
| 2026-05-09 12:41 | 32.82975 | 32.37185 | 37427 ft | 410 kts | 303° |
| 2026-05-09 12:41 | 32.84603 | 32.34401 | 37647 ft | 409 kts | 303° |
| 2026-05-09 12:41 | 32.86238 | 32.31620 | 37804 ft | 410 kts | 303° |
| 2026-05-09 12:42 | 32.87848 | 32.28877 | 37973 ft | 410 kts | 303° |
| 2026-05-09 12:42 | 32.91121 | 32.23266 | 38062 ft | 413 kts | 303° |
| 2026-05-09 12:43 | 32.94371 | 32.17656 | 38067 ft | 409 kts | 303° |
| 2026-05-09 12:43 | 32.97569 | 32.12116 | 38069 ft | 406 kts | 303° |
| 2026-05-09 12:44 | 33.00767 | 32.06565 | 38082 ft | 404 kts | 303° |
| 2026-05-09 12:44 | 33.03923 | 32.01077 | 38074 ft | 403 kts | 303° |
| 2026-05-09 12:45 | 33.07084 | 31.95573 | 38070 ft | 402 kts | 303° |
| 2026-05-09 12:45 | 33.10237 | 31.90077 | 38074 ft | 401 kts | 303° |
| 2026-05-09 12:46 | 33.13392 | 31.84567 | 38079 ft | 402 kts | 303° |
| 2026-05-09 12:46 | 33.16533 | 31.79073 | 38082 ft | 403 kts | 302° |
| 2026-05-09 12:47 | 33.19699 | 31.73530 | 38080 ft | 405 kts | 302° |
| 2026-05-09 12:47 | 33.22876 | 31.67957 | 38078 ft | 406 kts | 302° |
| 2026-05-09 12:48 | 33.26060 | 31.62365 | 38082 ft | 407 kts | 302° |
| 2026-05-09 12:48 | 33.29231 | 31.56786 | 38080 ft | 408 kts | 302° |
| 2026-05-09 12:49 | 33.32425 | 31.51159 | 38088 ft | 409 kts | 302° |
| 2026-05-09 12:49 | 33.35618 | 31.45525 | 38079 ft | 409 kts | 302° |
| 2026-05-09 12:50 | 33.38808 | 31.39887 | 38081 ft | 409 kts | 302° |
| 2026-05-09 12:50 | 33.41991 | 31.34254 | 38080 ft | 408 kts | 302° |
| 2026-05-09 12:51 | 33.45137 | 31.28676 | 38081 ft | 407 kts | 302° |
| 2026-05-09 12:51 | 33.48301 | 31.23059 | 38095 ft | 405 kts | 302° |
| 2026-05-09 12:52 | 33.51429 | 31.17497 | 38085 ft | 404 kts | 302° |
| 2026-05-09 12:52 | 33.54562 | 31.11918 | 38081 ft | 402 kts | 302° |
| 2026-05-09 12:53 | 33.57680 | 31.06358 | 38079 ft | 400 kts | 302° |
| 2026-05-09 12:53 | 33.60780 | 31.00819 | 38086 ft | 399 kts | 302° |
| 2026-05-09 12:54 | 33.63867 | 30.95298 | 38091 ft | 398 kts | 302° |
| 2026-05-09 12:54 | 33.66947 | 30.89779 | 38085 ft | 397 kts | 302° |
| 2026-05-09 12:55 | 33.70023 | 30.84259 | 38085 ft | 397 kts | 302° |
| 2026-05-09 12:55 | 33.73075 | 30.78775 | 38084 ft | 398 kts | 302° |
| 2026-05-09 12:56 | 33.76148 | 30.73242 | 38080 ft | 398 kts | 302° |
| 2026-05-09 12:56 | 33.79230 | 30.67687 | 38081 ft | 399 kts | 302° |
| 2026-05-09 12:57 | 33.82311 | 30.62125 | 38081 ft | 399 kts | 302° |
| 2026-05-09 12:57 | 33.85371 | 30.56592 | 38083 ft | 400 kts | 302° |
| 2026-05-09 12:58 | 33.88460 | 30.50999 | 38087 ft | 401 kts | 302° |
| 2026-05-09 12:58 | 33.91548 | 30.45398 | 38081 ft | 401 kts | 302° |
| 2026-05-09 12:59 | 33.94619 | 30.39819 | 38090 ft | 402 kts | 302° |
| 2026-05-09 12:59 | 33.97706 | 30.34204 | 38075 ft | 401 kts | 302° |
| 2026-05-09 13:00 | 34.00784 | 30.28596 | 38077 ft | 400 kts | 302° |
| 2026-05-09 13:00 | 34.03843 | 30.23012 | 38086 ft | 399 kts | 302° |
| 2026-05-09 13:01 | 34.06897 | 30.17430 | 38081 ft | 397 kts | 302° |
| 2026-05-09 13:01 | 34.09923 | 30.11891 | 38082 ft | 396 kts | 302° |
| 2026-05-09 13:02 | 34.12951 | 30.06337 | 38083 ft | 396 kts | 301° |
| 2026-05-09 13:02 | 34.15975 | 30.00786 | 38084 ft | 395 kts | 302° |
| 2026-05-09 13:03 | 34.19204 | 29.95470 | 38085 ft | 395 kts | 306° |
| 2026-05-09 13:03 | 34.22585 | 29.90225 | 38080 ft | 395 kts | 306° |
| 2026-05-09 13:04 | 34.25961 | 29.84972 | 38080 ft | 395 kts | 305° |
| 2026-05-09 13:04 | 34.29323 | 29.79701 | 38086 ft | 396 kts | 305° |
| 2026-05-09 13:05 | 34.32683 | 29.74408 | 38082 ft | 396 kts | 305° |
| 2026-05-09 13:05 | 34.36019 | 29.69140 | 38087 ft | 397 kts | 305° |
| 2026-05-09 13:06 | 34.39391 | 29.63808 | 38089 ft | 398 kts | 305° |
| 2026-05-09 13:06 | 34.42757 | 29.58477 | 38080 ft | 398 kts | 305° |
| 2026-05-09 13:07 | 34.46115 | 29.53150 | 38078 ft | 398 kts | 305° |
| 2026-05-09 13:07 | 34.49457 | 29.47843 | 38081 ft | 398 kts | 305° |
| 2026-05-09 13:08 | 34.52810 | 29.42507 | 38082 ft | 397 kts | 305° |
| 2026-05-09 13:08 | 34.56161 | 29.37168 | 38083 ft | 397 kts | 305° |
| 2026-05-09 13:09 | 34.59506 | 29.31831 | 38083 ft | 397 kts | 305° |
| 2026-05-09 13:09 | 34.62849 | 29.26489 | 38082 ft | 397 kts | 305° |
| 2026-05-09 13:10 | 34.66170 | 29.21175 | 38080 ft | 397 kts | 304° |
| 2026-05-09 13:10 | 34.69512 | 29.15817 | 38081 ft | 397 kts | 304° |
| 2026-05-09 13:11 | 34.72853 | 29.10454 | 38080 ft | 398 kts | 304° |
| 2026-05-09 13:11 | 34.76192 | 29.05086 | 38079 ft | 398 kts | 304° |
| 2026-05-09 13:12 | 34.79512 | 28.99739 | 38077 ft | 398 kts | 304° |
| 2026-05-09 13:12 | 34.82849 | 28.94360 | 38087 ft | 398 kts | 304° |
| 2026-05-09 13:13 | 34.86187 | 28.88968 | 38072 ft | 398 kts | 304° |
| 2026-05-09 13:13 | 34.89523 | 28.83571 | 38073 ft | 398 kts | 304° |
| 2026-05-09 13:14 | 34.92849 | 28.78184 | 38073 ft | 398 kts | 304° |
| 2026-05-09 13:16 | 35.05507 | 28.56244 | 38069 ft | 394 kts | 299° |
| 2026-05-09 13:16 | 35.08336 | 28.50508 | 38071 ft | 394 kts | 299° |
| 2026-05-09 13:17 | 35.11178 | 28.44783 | 38072 ft | 393 kts | 299° |
| 2026-05-09 13:17 | 35.14014 | 28.39075 | 38082 ft | 394 kts | 299° |
| 2026-05-09 13:18 | 35.16837 | 28.33365 | 38081 ft | 393 kts | 299° |
| 2026-05-09 13:18 | 35.19656 | 28.27641 | 38072 ft | 392 kts | 298° |
| 2026-05-09 13:19 | 35.22445 | 28.21973 | 38070 ft | 391 kts | 298° |
| 2026-05-09 13:19 | 35.25245 | 28.16273 | 38064 ft | 390 kts | 298° |
| 2026-05-09 13:20 | 35.28036 | 28.10581 | 38067 ft | 390 kts | 298° |
| 2026-05-09 13:20 | 35.30822 | 28.04890 | 38083 ft | 389 kts | 298° |
| 2026-05-09 13:21 | 35.33601 | 27.99204 | 38059 ft | 389 kts | 298° |
| 2026-05-09 13:21 | 35.36375 | 27.93521 | 38057 ft | 388 kts | 298° |
| 2026-05-09 13:22 | 35.39142 | 27.87841 | 38066 ft | 388 kts | 298° |
| 2026-05-09 13:22 | 35.41888 | 27.82194 | 38071 ft | 388 kts | 298° |
| 2026-05-09 13:23 | 35.48778 | 27.67988 | 38061 ft | 388 kts | 298° |
| 2026-05-09 13:24 | 35.51529 | 27.62299 | 38059 ft | 388 kts | 298° |
| 2026-05-09 13:24 | 35.54286 | 27.56590 | 38070 ft | 389 kts | 298° |
| 2026-05-09 13:25 | 35.57054 | 27.50845 | 37665 ft | 393 kts | 298° |
| 2026-05-09 13:25 | 35.59813 | 27.45113 | 36834 ft | 386 kts | 298° |
| 2026-05-09 13:26 | 35.61158 | 27.42316 | 36342 ft | 383 kts | 298° |
| 2026-05-09 13:26 | 35.62506 | 27.39510 | 35952 ft | 378 kts | 298° |
| 2026-05-09 13:26 | 35.63835 | 27.36740 | 35532 ft | 374 kts | 298° |
| 2026-05-09 13:26 | 35.65151 | 27.33995 | 35131 ft | 370 kts | 298° |
| 2026-05-09 13:27 | 35.66437 | 27.31310 | 34735 ft | 366 kts | 298° |
| 2026-05-09 13:27 | 35.67722 | 27.28624 | 34351 ft | 362 kts | 298° |
| 2026-05-09 13:27 | 35.68996 | 27.25960 | 33951 ft | 359 kts | 298° |
| 2026-05-09 13:27 | 35.70253 | 27.23330 | 33509 ft | 355 kts | 298° |
| 2026-05-09 13:28 | 35.71079 | 27.21602 | 33246 ft | 352 kts | 298° |
| 2026-05-09 13:28 | 35.72312 | 27.19018 | 32863 ft | 348 kts | 299° |
| 2026-05-09 13:28 | 35.73533 | 27.16458 | 32518 ft | 346 kts | 298° |
| 2026-05-09 13:28 | 35.74746 | 27.13912 | 32130 ft | 343 kts | 298° |
| 2026-05-09 13:29 | 35.75948 | 27.11388 | 31740 ft | 339 kts | 298° |
| 2026-05-09 13:29 | 35.77137 | 27.08886 | 31377 ft | 336 kts | 298° |
| 2026-05-09 13:29 | 35.78301 | 27.06439 | 31015 ft | 333 kts | 298° |
| 2026-05-09 13:29 | 35.79462 | 27.03996 | 30662 ft | 330 kts | 298° |
| 2026-05-09 13:30 | 35.80624 | 27.01549 | 30304 ft | 328 kts | 298° |
| 2026-05-09 13:30 | 35.81772 | 26.99130 | 29924 ft | 325 kts | 298° |
| 2026-05-09 13:30 | 35.82860 | 26.96695 | 29588 ft | 321 kts | 295° |
| 2026-05-09 13:30 | 35.83817 | 26.94247 | 29261 ft | 316 kts | 294° |
| 2026-05-09 13:31 | 35.84733 | 26.91837 | 28932 ft | 313 kts | 294° |
| 2026-05-09 13:31 | 35.85657 | 26.89413 | 28575 ft | 310 kts | 294° |
| 2026-05-09 13:31 | 35.86596 | 26.87002 | 28171 ft | 313 kts | 295° |
| 2026-05-09 13:31 | 35.87565 | 26.84537 | 27795 ft | 324 kts | 295° |
| 2026-05-09 13:32 | 35.88551 | 26.82031 | 27405 ft | 328 kts | 295° |
| 2026-05-09 13:32 | 35.90537 | 26.76990 | 26642 ft | 322 kts | 296° |
| 2026-05-09 13:32 | 35.91669 | 26.74651 | 26255 ft | 320 kts | 301° |
| 2026-05-09 13:33 | 35.92922 | 26.72384 | 25866 ft | 318 kts | 302° |
| 2026-05-09 13:33 | 35.94185 | 26.70137 | 25498 ft | 316 kts | 302° |
| 2026-05-09 13:33 | 35.95434 | 26.67916 | 25138 ft | 313 kts | 302° |
| 2026-05-09 13:33 | 35.96656 | 26.65739 | 24786 ft | 311 kts | 302° |
| 2026-05-09 13:34 | 35.97874 | 26.63560 | 24445 ft | 308 kts | 302° |
| 2026-05-09 13:34 | 35.99088 | 26.61381 | 24100 ft | 306 kts | 302° |
| 2026-05-09 13:34 | 36.00293 | 26.59214 | 23752 ft | 304 kts | 302° |
| 2026-05-09 13:34 | 36.01472 | 26.57090 | 23377 ft | 303 kts | 302° |
| 2026-05-09 13:35 | 36.02658 | 26.54952 | 22999 ft | 300 kts | 302° |
| 2026-05-09 13:35 | 36.03834 | 26.52828 | 22657 ft | 297 kts | 302° |
| 2026-05-09 13:35 | 36.05001 | 26.50718 | 22336 ft | 294 kts | 301° |
| 2026-05-09 13:35 | 36.06148 | 26.48645 | 21974 ft | 292 kts | 301° |
| 2026-05-09 13:36 | 36.07275 | 26.46604 | 21634 ft | 289 kts | 301° |
| 2026-05-09 13:36 | 36.08407 | 26.44555 | 21299 ft | 287 kts | 301° |
| 2026-05-09 13:36 | 36.09528 | 26.42522 | 20969 ft | 285 kts | 301° |
| 2026-05-09 13:36 | 36.10631 | 26.40522 | 20648 ft | 283 kts | 301° |
| 2026-05-09 13:37 | 36.11744 | 26.38500 | 20334 ft | 284 kts | 301° |
| 2026-05-09 13:37 | 36.12863 | 26.36468 | 20009 ft | 286 kts | 300° |
| 2026-05-09 13:37 | 36.13987 | 26.34421 | 19697 ft | 296 kts | 300° |
| 2026-05-09 13:37 | 36.15162 | 26.32282 | 19354 ft | 301 kts | 300° |
| 2026-05-09 13:38 | 36.16345 | 26.30130 | 18993 ft | 300 kts | 300° |
| 2026-05-09 13:38 | 36.17504 | 26.28022 | 18656 ft | 299 kts | 300° |
| 2026-05-09 13:38 | 36.18670 | 26.25901 | 18313 ft | 297 kts | 300° |
| 2026-05-09 13:38 | 36.19833 | 26.23784 | 17924 ft | 295 kts | 300° |
| 2026-05-09 13:39 | 36.20992 | 26.21671 | 17563 ft | 293 kts | 300° |
| 2026-05-09 13:39 | 36.22118 | 26.19616 | 17218 ft | 291 kts | 300° |
| 2026-05-09 13:39 | 36.23253 | 26.17544 | 16878 ft | 288 kts | 300° |
| 2026-05-09 13:39 | 36.24374 | 26.15496 | 16550 ft | 286 kts | 300° |
| 2026-05-09 13:40 | 36.25491 | 26.13453 | 16218 ft | 284 kts | 300° |
| 2026-05-09 13:40 | 36.26598 | 26.11428 | 15889 ft | 282 kts | 300° |
| 2026-05-09 13:40 | 36.27686 | 26.09438 | 15570 ft | 281 kts | 300° |
| 2026-05-09 13:40 | 36.28781 | 26.07432 | 15238 ft | 279 kts | 300° |
| 2026-05-09 13:41 | 36.29869 | 26.05438 | 14927 ft | 278 kts | 300° |
| 2026-05-09 13:41 | 36.30950 | 26.03455 | 14593 ft | 277 kts | 301° |
| 2026-05-09 13:41 | 36.32026 | 26.01479 | 14288 ft | 276 kts | 301° |
| 2026-05-09 13:41 | 36.33090 | 25.99526 | 13968 ft | 275 kts | 301° |
| 2026-05-09 13:42 | 36.34167 | 25.97549 | 13609 ft | 275 kts | 301° |
| 2026-05-09 13:42 | 36.35240 | 25.95576 | 13260 ft | 275 kts | 301° |
| 2026-05-09 13:42 | 36.36293 | 25.93642 | 13057 ft | 269 kts | 301° |
| 2026-05-09 13:42 | 36.37339 | 25.91737 | 12887 ft | 263 kts | 302° |
| 2026-05-09 13:43 | 36.38541 | 25.89995 | 12389 ft | 271 kts | 310° |
| 2026-05-09 13:43 | 36.39880 | 25.88328 | 12021 ft | 272 kts | 311° |
| 2026-05-09 13:43 | 36.41233 | 25.86683 | 11714 ft | 271 kts | 311° |
| 2026-05-09 13:43 | 36.42578 | 25.85040 | 11417 ft | 270 kts | 311° |
| 2026-05-09 13:44 | 36.43898 | 25.83414 | 11110 ft | 269 kts | 311° |
| 2026-05-09 13:44 | 36.45224 | 25.81770 | 10808 ft | 268 kts | 310° |
| 2026-05-09 13:44 | 36.46542 | 25.80126 | 10510 ft | 267 kts | 310° |
| 2026-05-09 13:44 | 36.47840 | 25.78502 | 10259 ft | 265 kts | 310° |
| 2026-05-09 13:45 | 36.49123 | 25.76894 | 10134 ft | 257 kts | 310° |
| 2026-05-09 13:45 | 36.50374 | 25.75324 | 9959 ft | 253 kts | 310° |
| 2026-05-09 13:45 | 36.51611 | 25.73764 | 9670 ft | 252 kts | 310° |
| 2026-05-09 13:45 | 36.52828 | 25.72229 | 9394 ft | 251 kts | 310° |
| 2026-05-09 13:46 | 36.54057 | 25.70677 | 9120 ft | 250 kts | 310° |
| 2026-05-09 13:46 | 36.55279 | 25.69134 | 8858 ft | 249 kts | 310° |
| 2026-05-09 13:46 | 36.56482 | 25.67614 | 8577 ft | 249 kts | 310° |
| 2026-05-09 13:46 | 36.57684 | 25.66092 | 8310 ft | 248 kts | 310° |
| 2026-05-09 13:47 | 36.58895 | 25.64561 | 8037 ft | 248 kts | 310° |
| 2026-05-09 13:47 | 36.60099 | 25.63036 | 7780 ft | 248 kts | 309° |
| 2026-05-09 13:47 | 36.61308 | 25.61504 | 7514 ft | 247 kts | 309° |
| 2026-05-09 13:47 | 36.62518 | 25.59972 | 7252 ft | 247 kts | 309° |
| 2026-05-09 13:48 | 36.63709 | 25.58462 | 6995 ft | 247 kts | 309° |
| 2026-05-09 13:48 | 36.64939 | 25.56901 | 6564 ft | 255 kts | 310° |
| 2026-05-09 13:48 | 36.66192 | 25.55310 | 6206 ft | 258 kts | 310° |
| 2026-05-09 13:48 | 36.67426 | 25.53708 | 5968 ft | 254 kts | 304° |
| 2026-05-09 13:49 | 36.68130 | 25.51785 | 5797 ft | 239 kts | 275° |
| 2026-05-09 13:49 | 36.68066 | 25.49746 | 5547 ft | 234 kts | 255° |
| 2026-05-09 13:49 | 36.67560 | 25.47858 | 5305 ft | 231 kts | 248° |
| 2026-05-09 13:49 | 36.66973 | 25.46008 | 5158 ft | 226 kts | 247° |
| 2026-05-09 13:50 | 36.66403 | 25.44210 | 5035 ft | 220 kts | 247° |
| 2026-05-09 13:50 | 36.65861 | 25.42475 | 4935 ft | 208 kts | 247° |
| 2026-05-09 13:50 | 36.65358 | 25.40850 | 4872 ft | 196 kts | 247° |
| 2026-05-09 13:50 | 36.64869 | 25.39270 | 4713 ft | 196 kts | 246° |
| 2026-05-09 13:51 | 36.64110 | 25.37930 | 4526 ft | 192 kts | 214° |
| 2026-05-09 13:51 | 36.62873 | 25.37399 | 4346 ft | 190 kts | 184° |
| 2026-05-09 13:51 | 36.61592 | 25.37697 | 4149 ft | 185 kts | 162° |
| 2026-05-09 13:51 | 36.60419 | 25.38256 | 3926 ft | 176 kts | 162° |
| 2026-05-09 13:52 | 36.59295 | 25.38785 | 3761 ft | 170 kts | 162° |
| 2026-05-09 13:52 | 36.58185 | 25.39308 | 3578 ft | 172 kts | 162° |
| 2026-05-09 13:52 | 36.57069 | 25.39833 | 3390 ft | 173 kts | 161° |
| 2026-05-09 13:52 | 36.55950 | 25.40362 | 3185 ft | 169 kts | 161° |
| 2026-05-09 13:53 | 36.54878 | 25.40868 | 2988 ft | 159 kts | 161° |
| 2026-05-09 13:53 | 36.53863 | 25.41347 | 2767 ft | 154 kts | 161° |
| 2026-05-09 13:53 | 36.52861 | 25.41819 | 2584 ft | 154 kts | 161° |
| 2026-05-09 13:53 | 36.51870 | 25.42286 | 2379 ft | 155 kts | 161° |
| 2026-05-09 13:54 | 36.50858 | 25.42763 | 2186 ft | 155 kts | 160° |
| 2026-05-09 13:54 | 36.49846 | 25.43240 | 1983 ft | 154 kts | 160° |
| 2026-05-09 13:54 | 36.48872 | 25.43700 | 1801 ft | 147 kts | 160° |
| 2026-05-09 13:54 | 36.47932 | 25.44142 | 1593 ft | 143 kts | 160° |
| 2026-05-09 13:55 | 36.47002 | 25.44580 | 1414 ft | 143 kts | 159° |
| 2026-05-09 13:55 | 36.46056 | 25.45025 | 1225 ft | 147 kts | 159° |
| 2026-05-09 13:55 | 36.45107 | 25.45471 | 1025 ft | 147 kts | 159° |
| 2026-05-09 13:55 | 36.44136 | 25.45929 | 883 ft | 150 kts | 158° |
| 2026-05-09 13:56 | 36.43156 | 25.46395 | 664 ft | 152 kts | 156° |
| 2026-05-09 13:56 | 36.42173 | 25.46858 | 458 ft | 149 kts | 158° |
| 2026-05-09 13:56 | 36.41208 | 25.47305 | 218 ft | 150 kts | 156° |
| 2026-05-09 13:56 | 36.40293 | 25.47742 | 106 ft | 117 kts | 160° |
| 2026-05-09 13:57 | 36.39881 | 25.47934 | 91 ft | 19 kts | 160° |
| 2026-05-09 13:57 | 36.39772 | 25.47928 | 88 ft | 11 kts | 246° |
| 2026-05-09 13:57 | 36.39753 | 25.47845 | 86 ft | 7 kts | 286° |
| 2026-05-09 13:57 | 36.39792 | 25.47808 | 89 ft | 7 kts | 338° |
| 2026-05-09 13:58 | 36.39835 | 25.47786 | 91 ft | 7 kts | 339° |
| 2026-05-09 13:58 | 36.39888 | 25.47762 | 91 ft | 10 kts | 341° |
| 2026-05-09 13:58 | 36.39960 | 25.47729 | 94 ft | 11 kts | 339° |
| 2026-05-09 13:58 | 36.40033 | 25.47695 | 97 ft | 11 kts | 339° |
| 2026-05-09 13:59 | 36.40102 | 25.47663 | 99 ft | 11 kts | 339° |
| 2026-05-09 13:59 | 36.40131 | 25.47591 | 101 ft | 12 kts | 261° |
| 2026-05-09 13:59 | 36.40177 | 25.47521 | 103 ft | 13 kts | 342° |
| 2026-05-09 13:59 | 36.40265 | 25.47483 | 106 ft | 13 kts | 341° |
| 2026-05-09 14:00 | 36.40341 | 25.47449 | 107 ft | 10 kts | 330° |
| 2026-05-09 14:00 | 36.40355 | 25.47429 | 110 ft | 8 kts | 294° |
| 2026-05-09 14:00 | 36.40349 | 25.47380 | 108 ft | 0 kts | 252° |